createdAt,value
2017-06-01T00:00:37.725Z,2.68
2017-06-01T00:03:05.705Z,2.88
2017-06-01T00:05:32.735Z,3.24
2017-06-01T00:08:00.721Z,2.74
2017-06-01T00:10:28.715Z,2.82
2017-06-01T00:12:55.385Z,2.20
2017-06-01T00:15:23.935Z,3.06
2017-06-01T00:17:52.321Z,2.82
2017-06-01T00:20:20.474Z,2.76
2017-06-01T00:22:47.733Z,2.78
2017-06-01T00:25:15.852Z,3.32
2017-06-01T00:27:43.606Z,3.04
2017-06-01T00:30:10.278Z,2.96
2017-06-01T00:32:37.317Z,3.32
2017-06-01T00:35:04.694Z,2.82
2017-06-01T00:37:31.685Z,2.88
2017-06-01T00:39:59.081Z,3.58
2017-06-01T00:42:26.118Z,3.76
2017-06-01T00:44:53.126Z,3.18
2017-06-01T00:47:20.498Z,3.48
2017-06-01T00:49:48.578Z,3.68
2017-06-01T00:52:16.637Z,3.82
2017-06-01T00:54:43.674Z,2.90
2017-06-01T00:57:11.681Z,2.92
2017-06-01T00:59:38.688Z,3.28
2017-06-01T01:02:05.689Z,3.42
2017-06-01T01:04:32.349Z,3.02
2017-06-01T01:06:58.983Z,3.20
2017-06-01T01:09:25.620Z,3.34
2017-06-01T01:11:53.002Z,2.82
2017-06-01T01:14:20.023Z,3.10
2017-06-01T01:16:48.150Z,3.54
2017-06-01T01:19:15.934Z,3.38
2017-06-01T01:21:43.969Z,2.98
2017-06-01T01:24:11.386Z,4.04
2017-06-01T01:26:38.165Z,3.70
2017-06-01T01:29:06.174Z,3.54
2017-06-01T01:31:33.587Z,3.54
2017-06-01T01:34:01.597Z,3.48
2017-06-01T01:36:28.268Z,3.38
2017-06-01T01:38:56.283Z,3.66
2017-06-01T01:41:24.298Z,3.22
2017-06-01T01:43:52.825Z,3.46
2017-06-01T01:46:19.938Z,3.28
2017-06-01T01:48:47.970Z,3.40
2017-06-01T01:51:15.982Z,3.48
2017-06-01T01:53:44.045Z,3.84
2017-06-01T01:56:11.093Z,3.92
2017-06-01T01:58:39.249Z,3.52
2017-06-01T02:01:07.113Z,4.24
2017-06-01T02:03:34.901Z,3.98
2017-06-01T02:06:02.893Z,5.02
2017-06-01T02:08:30.154Z,3.52
2017-06-01T02:10:57.474Z,4.12
2017-06-01T02:13:25.474Z,3.90
2017-06-01T02:15:53.749Z,3.44
2017-06-01T02:18:21.321Z,3.32
2017-06-01T02:20:49.350Z,3.64
2017-06-01T02:23:16.768Z,4.46
2017-06-01T02:25:43.831Z,4.54
2017-06-01T02:28:11.862Z,3.44
2017-06-01T02:30:39.846Z,4.02
2017-06-01T02:33:07.625Z,4.34
2017-06-01T02:35:34.702Z,4.26
2017-06-01T02:38:02.483Z,3.64
2017-06-01T02:40:30.500Z,3.54
2017-06-01T02:42:58.509Z,3.92
2017-06-01T02:45:25.177Z,3.32
2017-06-01T02:47:52.253Z,3.92
2017-06-01T02:50:20.268Z,5.16
2017-06-01T02:52:48.374Z,4.50
2017-06-01T02:55:15.418Z,5.14
2017-06-01T02:57:43.480Z,4.98
2017-06-01T03:00:10.885Z,5.04
2017-06-01T03:02:37.921Z,5.06
2017-06-01T03:05:05.057Z,3.88
2017-06-01T03:07:32.103Z,4.28
2017-06-01T03:09:59.143Z,4.42
2017-06-01T03:12:26.254Z,4.10
2017-06-01T03:14:53.354Z,4.84
2017-06-01T03:17:20.034Z,4.92
2017-06-01T03:19:47.109Z,4.58
2017-06-01T03:22:15.117Z,5.42
2017-06-01T03:24:43.165Z,4.90
2017-06-01T03:27:09.833Z,4.22
2017-06-01T03:29:37.882Z,4.92
2017-06-01T03:32:05.918Z,4.42
2017-06-01T03:34:32.945Z,4.72
2017-06-01T03:37:00.352Z,4.20
2017-06-01T03:39:27.758Z,4.48
2017-06-01T03:41:54.461Z,4.00
2017-06-01T03:44:21.566Z,4.70
2017-06-01T03:46:48.692Z,3.70
2017-06-01T03:49:15.715Z,4.40
2017-06-01T03:51:42.791Z,3.10
2017-06-01T03:54:10.807Z,3.88
2017-06-01T03:56:38.355Z,4.20
2017-06-01T03:59:05.015Z,4.30
2017-06-01T04:01:33.029Z,4.80
2017-06-01T04:04:00.462Z,5.22
2017-06-01T04:06:27.525Z,4.04
2017-06-01T04:08:55.544Z,4.38
2017-06-01T04:11:22.581Z,4.32
2017-06-01T04:13:50.028Z,4.78
2017-06-01T04:16:17.582Z,4.52
2017-06-01T04:18:44.643Z,5.50
2017-06-01T04:21:11.721Z,4.30
2017-06-01T04:23:38.864Z,4.48
2017-06-01T04:26:07.028Z,4.74
2017-06-01T04:28:34.134Z,5.04
2017-06-01T04:31:00.801Z,5.26
2017-06-01T04:33:28.800Z,4.26
2017-06-01T04:35:55.867Z,4.62
2017-06-01T04:38:22.723Z,5.82
2017-06-01T04:40:50.142Z,5.12
2017-06-01T04:43:16.823Z,6.80
2017-06-01T04:45:44.274Z,8.38
2017-06-01T04:48:11.322Z,7.84
2017-06-01T04:50:39.389Z,7.84
2017-06-01T04:53:06.492Z,6.74
2017-06-01T04:55:33.554Z,9.12
2017-06-01T04:58:09.874Z,7.44
2017-06-01T05:00:38.605Z,6.52
2017-06-01T05:03:06.570Z,6.48
2017-06-01T05:05:33.454Z,6.76
2017-06-01T05:08:01.044Z,6.60
2017-06-01T05:10:28.338Z,5.90
2017-06-01T05:12:55.314Z,6.68
2017-06-01T05:15:22.605Z,5.48
2017-06-01T05:17:49.877Z,5.40
2017-06-01T05:20:17.141Z,4.66
2017-06-01T05:22:44.864Z,4.68
2017-06-01T05:25:13.110Z,7.30
2017-06-01T05:27:40.357Z,6.58
2017-06-01T05:30:08.582Z,4.62
2017-06-01T05:32:36.719Z,4.96
2017-06-01T05:35:04.693Z,5.88
2017-06-01T05:37:32.926Z,5.40
2017-06-01T05:40:01.173Z,5.12
2017-06-01T05:42:28.407Z,4.84
2017-06-01T05:44:55.290Z,5.10
2017-06-01T05:47:22.535Z,4.76
2017-06-01T05:49:49.786Z,4.80
2017-06-01T05:52:18.062Z,5.72
2017-06-01T05:54:46.361Z,5.12
2017-06-01T05:57:14.583Z,6.02
2017-06-01T05:59:42.826Z,6.72
2017-06-01T06:02:11.345Z,5.70
2017-06-01T06:04:39.331Z,5.62
2017-06-01T06:07:06.594Z,6.52
2017-06-01T06:09:33.830Z,6.14
2017-06-01T06:12:01.840Z,6.70
2017-06-01T06:14:28.726Z,6.06
2017-06-01T06:17:02.423Z,6.66
2017-06-01T06:19:30.675Z,5.86
2017-06-01T06:21:58.898Z,4.82
2017-06-01T06:24:26.141Z,7.28
2017-06-01T06:26:54.410Z,7.20
2017-06-01T06:29:22.294Z,7.68
2017-06-01T06:31:49.221Z,6.76
2017-06-01T06:34:16.453Z,7.34
2017-06-01T06:36:43.370Z,5.86
2017-06-01T06:39:10.403Z,7.38
2017-06-01T06:41:37.630Z,7.32
2017-06-01T06:44:05.605Z,5.90
2017-06-01T06:46:33.817Z,5.72
2017-06-01T06:49:04.110Z,6.32
2017-06-01T06:51:32.086Z,8.14
2017-06-01T06:54:00.089Z,6.28
2017-06-01T06:56:28.337Z,7.12
2017-06-01T06:58:56.498Z,6.80
2017-06-01T07:01:24.119Z,6.66
2017-06-01T07:03:51.012Z,6.12
2017-06-01T07:06:18.184Z,7.38
2017-06-01T07:08:45.459Z,6.26
2017-06-01T07:11:12.331Z,7.42
2017-06-01T07:13:39.210Z,7.58
2017-06-01T07:16:06.474Z,6.22
2017-06-01T07:18:33.301Z,6.14
2017-06-01T07:21:01.642Z,6.82
2017-06-01T07:23:28.906Z,7.20
2017-06-01T07:25:57.161Z,7.04
2017-06-01T07:28:25.402Z,7.24
2017-06-01T07:30:53.643Z,7.66
2017-06-01T07:33:20.888Z,7.56
2017-06-01T07:35:48.180Z,6.28
2017-06-01T07:38:15.031Z,6.88
2017-06-01T07:40:42.695Z,7.24
2017-06-01T07:43:10.906Z,6.60
2017-06-01T07:45:38.525Z,6.74
2017-06-01T07:48:05.770Z,6.94
2017-06-01T07:50:33.980Z,7.20
2017-06-01T07:53:01.603Z,6.78
2017-06-01T07:55:28.858Z,7.70
2017-06-01T07:57:57.066Z,7.78
2017-06-01T08:00:24.307Z,8.06
2017-06-01T08:02:51.540Z,7.10
2017-06-01T08:05:18.805Z,7.46
2017-06-01T08:07:45.649Z,6.44
2017-06-01T08:10:13.867Z,6.50
2017-06-01T08:12:41.066Z,7.20
2017-06-01T08:15:09.256Z,6.10
2017-06-01T08:17:36.493Z,6.20
2017-06-01T08:20:04.719Z,6.48
2017-06-01T08:22:32.319Z,6.68
2017-06-01T08:24:59.176Z,6.26
2017-06-01T08:27:27.409Z,6.84
2017-06-01T08:29:54.259Z,7.20
2017-06-01T08:32:21.123Z,7.08
2017-06-01T08:34:48.342Z,6.44
2017-06-01T08:37:15.657Z,6.70
2017-06-01T08:39:57.644Z,6.30
2017-06-01T08:42:25.267Z,6.52
2017-06-01T08:44:53.262Z,5.60
2017-06-01T08:47:21.349Z,6.54
2017-06-01T08:49:48.601Z,7.70
2017-06-01T08:52:16.816Z,10.80
2017-06-01T08:54:44.848Z,7.30
2017-06-01T08:57:13.050Z,6.72
2017-06-01T08:59:40.694Z,7.22
2017-06-01T09:02:07.942Z,6.70
2017-06-01T09:04:35.088Z,5.70
2017-06-01T09:07:03.302Z,7.08
2017-06-01T09:09:31.289Z,6.52
2017-06-01T09:11:58.514Z,7.44
2017-06-01T09:14:26.758Z,6.36
2017-06-01T09:16:54.031Z,6.18
2017-06-01T09:19:22.363Z,7.38
2017-06-01T09:21:50.605Z,6.16
2017-06-01T09:24:17.489Z,6.34
2017-06-01T09:26:45.735Z,6.98
2017-06-01T09:29:13.010Z,7.00
2017-06-01T09:31:40.286Z,5.76
2017-06-01T09:34:07.134Z,4.96
2017-06-01T09:36:35.052Z,5.00
2017-06-01T09:39:02.958Z,5.44
2017-06-01T09:41:30.248Z,5.80
2017-06-01T09:43:58.453Z,5.94
2017-06-01T09:46:26.434Z,5.82
2017-06-01T09:48:53.699Z,5.18
2017-06-01T09:51:21.930Z,5.20
2017-06-01T09:53:49.230Z,6.46
2017-06-01T09:56:16.198Z,7.10
2017-06-01T09:58:44.211Z,6.24
2017-06-01T10:01:11.475Z,5.60
2017-06-01T10:03:38.809Z,6.82
2017-06-01T10:06:06.060Z,5.98
2017-06-01T10:08:33.278Z,7.16
2017-06-01T10:11:00.538Z,7.38
2017-06-01T10:13:28.145Z,7.54
2017-06-01T10:15:56.550Z,8.92
2017-06-01T10:18:23.822Z,7.88
2017-06-01T10:20:52.162Z,7.86
2017-06-01T10:23:20.387Z,7.90
2017-06-01T10:25:48.387Z,7.38
2017-06-01T10:28:15.652Z,7.60
2017-06-01T10:30:43.794Z,7.42
2017-06-01T10:33:11.049Z,8.28
2017-06-01T10:35:37.914Z,8.28
2017-06-01T10:38:05.212Z,8.86
2017-06-01T10:40:32.447Z,9.26
2017-06-01T10:42:59.725Z,9.18
2017-06-01T10:45:27.947Z,8.42
2017-06-01T10:47:55.221Z,8.02
2017-06-01T10:50:22.512Z,9.18
2017-06-01T10:52:50.647Z,8.04
2017-06-01T10:55:18.738Z,8.62
2017-06-01T10:57:45.609Z,8.44
2017-06-01T11:00:12.822Z,8.30
2017-06-01T11:02:41.034Z,9.12
2017-06-01T11:05:08.318Z,8.30
2017-06-01T11:07:36.318Z,8.60
2017-06-01T11:10:03.201Z,7.96
2017-06-01T11:12:32.198Z,8.32
2017-06-01T11:15:00.419Z,8.16
2017-06-01T11:17:27.158Z,9.08
2017-06-01T11:19:55.409Z,7.76
2017-06-01T11:22:23.654Z,7.32
2017-06-01T11:24:51.309Z,9.68
2017-06-01T11:27:18.565Z,7.18
2017-06-01T11:29:45.840Z,7.80
2017-06-01T11:32:13.087Z,7.12
2017-06-01T11:34:40.329Z,6.86
2017-06-01T11:37:08.741Z,8.10
2017-06-01T11:39:36.009Z,7.48
2017-06-01T11:42:03.313Z,7.22
2017-06-01T11:44:31.536Z,7.98
2017-06-01T11:46:59.224Z,8.24
2017-06-01T11:49:26.127Z,8.90
2017-06-01T11:51:54.341Z,8.82
2017-06-01T11:54:26.673Z,8.12
2017-06-01T11:56:53.942Z,6.80
2017-06-01T11:59:23.494Z,8.62
2017-06-01T12:01:50.745Z,7.06
2017-06-01T12:04:18.782Z,6.60
2017-06-01T12:06:46.163Z,6.62
2017-06-01T12:09:13.442Z,6.84
2017-06-01T12:11:41.665Z,6.90
2017-06-01T12:14:09.898Z,7.90
2017-06-01T12:16:37.160Z,7.38
2017-06-01T12:19:05.408Z,7.82
2017-06-01T12:21:32.658Z,8.12
2017-06-01T12:23:59.925Z,7.78
2017-06-01T12:26:26.803Z,7.02
2017-06-01T12:28:53.701Z,6.82
2017-06-01T12:31:20.619Z,7.36
2017-06-01T12:33:47.553Z,7.50
2017-06-01T12:36:14.370Z,7.16
2017-06-01T12:38:41.603Z,6.72
2017-06-01T12:41:08.868Z,7.72
2017-06-01T12:43:37.094Z,6.82
2017-06-01T12:46:04.336Z,7.02
2017-06-01T12:48:31.604Z,7.50
2017-06-01T12:51:00.588Z,8.60
2017-06-01T12:53:27.615Z,8.52
2017-06-01T12:55:54.893Z,7.06
2017-06-01T12:58:22.182Z,6.90
2017-06-01T13:00:49.434Z,6.38
2017-06-01T13:03:16.691Z,7.62
2017-06-01T13:05:46.738Z,6.96
2017-06-01T13:08:13.906Z,6.86
2017-06-01T13:10:41.514Z,7.14
2017-06-01T13:13:09.716Z,6.38
2017-06-01T13:15:37.006Z,7.24
2017-06-01T13:18:05.843Z,7.04
2017-06-01T13:20:34.138Z,7.30
2017-06-01T13:23:01.073Z,7.40
2017-06-01T13:25:29.106Z,6.38
2017-06-01T13:27:56.339Z,6.30
2017-06-01T13:32:57.694Z,5.60
2017-06-01T13:35:24.995Z,6.64
2017-06-01T13:37:52.659Z,7.00
2017-06-01T13:40:20.877Z,5.94
2017-06-01T13:42:48.542Z,6.02
2017-06-01T13:45:16.779Z,6.62
2017-06-01T13:47:44.994Z,6.60
2017-06-01T13:50:11.855Z,6.76
2017-06-01T13:52:40.073Z,7.20
2017-06-01T13:55:08.329Z,6.84
2017-06-01T13:57:36.065Z,6.36
2017-06-01T14:00:04.281Z,5.60
2017-06-01T14:02:32.539Z,5.62
2017-06-01T14:04:59.550Z,5.18
2017-06-01T14:07:26.581Z,8.12
2017-06-01T14:09:54.617Z,5.58
2017-06-01T14:12:22.391Z,5.34
2017-06-01T14:14:49.078Z,5.92
2017-06-01T14:17:17.087Z,6.00
2017-06-01T14:19:45.069Z,7.64
2017-06-01T14:22:12.074Z,7.96
2017-06-01T14:24:41.421Z,7.18
2017-06-01T14:27:09.014Z,6.94
2017-06-01T14:29:36.112Z,7.00
2017-06-01T14:32:05.297Z,6.30
2017-06-01T14:34:32.451Z,6.50
2017-06-01T14:36:59.459Z,5.94
2017-06-01T14:39:27.442Z,6.92
2017-06-01T14:41:54.487Z,7.88
2017-06-01T14:44:21.737Z,7.06
2017-06-01T14:46:49.882Z,7.40
2017-06-01T14:49:16.606Z,8.54
2017-06-01T14:51:43.627Z,7.32
2017-06-01T14:54:11.629Z,7.76
2017-06-01T14:56:39.630Z,8.62
2017-06-01T14:59:06.267Z,7.14
2017-06-01T15:01:34.269Z,6.72
2017-06-01T15:04:02.275Z,7.56
2017-06-01T15:06:30.287Z,7.32
2017-06-01T15:08:58.313Z,7.26
2017-06-01T15:11:26.318Z,7.38
2017-06-01T15:13:53.335Z,8.70
2017-06-01T15:16:21.424Z,6.86
2017-06-01T15:18:48.851Z,7.10
2017-06-01T15:21:17.906Z,7.30
2017-06-01T15:23:45.213Z,8.12
2017-06-01T15:26:13.679Z,6.70
2017-06-01T15:28:40.353Z,7.40
2017-06-01T15:31:07.367Z,7.62
2017-06-01T15:33:35.352Z,9.80
2017-06-01T15:36:03.341Z,7.02
2017-06-01T15:38:31.409Z,6.74
2017-06-01T15:40:59.405Z,6.62
2017-06-01T15:43:27.389Z,8.44
2017-06-01T15:45:55.427Z,8.52
2017-06-01T15:48:22.114Z,8.26
2017-06-01T15:50:50.110Z,8.26
2017-06-01T15:53:18.113Z,6.70
2017-06-01T15:55:46.314Z,7.72
2017-06-01T15:58:17.021Z,6.44
2017-06-01T16:00:43.666Z,7.76
2017-06-01T16:03:11.082Z,6.64
2017-06-01T16:05:38.117Z,8.52
2017-06-01T16:08:06.110Z,7.54
2017-06-01T16:10:33.485Z,7.20
2017-06-01T16:13:00.136Z,8.16
2017-06-01T16:15:28.136Z,8.38
2017-06-01T16:17:55.192Z,7.00
2017-06-01T16:20:22.659Z,7.00
2017-06-01T16:22:49.666Z,7.06
2017-06-01T16:25:16.690Z,6.70
2017-06-01T16:27:43.531Z,7.20
2017-06-01T16:30:11.570Z,7.36
2017-06-01T16:32:39.780Z,6.00
2017-06-01T16:35:08.057Z,7.44
2017-06-01T16:37:36.061Z,6.82
2017-06-01T16:40:08.223Z,6.82
2017-06-01T16:42:36.225Z,6.78
2017-06-01T16:45:04.233Z,6.44
2017-06-01T16:47:30.524Z,5.10
2017-06-01T16:49:58.278Z,6.30
2017-06-01T16:52:30.484Z,4.62
2017-06-01T16:54:57.465Z,5.12
2017-06-01T16:57:25.462Z,4.60
2017-06-01T16:59:52.514Z,4.72
2017-06-01T17:02:20.354Z,5.06
2017-06-01T17:04:54.822Z,5.50
2017-06-01T17:07:21.857Z,4.38
2017-06-01T17:09:49.911Z,4.64
2017-06-01T17:12:17.301Z,4.92
2017-06-01T17:14:44.334Z,4.48
2017-06-01T17:17:13.882Z,4.28
2017-06-01T17:19:41.873Z,4.06
2017-06-01T17:22:08.498Z,4.24
2017-06-01T17:24:35.140Z,3.64
2017-06-01T17:27:06.512Z,4.38
2017-06-01T17:29:34.638Z,3.72
2017-06-01T17:32:02.622Z,3.52
2017-06-01T17:34:30.014Z,3.98
2017-06-01T17:36:58.009Z,4.16
2017-06-01T17:39:25.786Z,4.10
2017-06-01T17:41:53.228Z,4.70
2017-06-01T17:44:24.899Z,2.42
2017-06-01T17:46:51.582Z,2.94
2017-06-01T17:49:19.591Z,2.96
2017-06-01T17:51:46.632Z,2.88
2017-06-01T17:54:13.646Z,3.08
2017-06-01T17:56:41.018Z,2.88
2017-06-01T17:59:09.025Z,3.00
2017-06-01T18:01:39.067Z,2.86
2017-06-01T18:04:06.081Z,3.24
2017-06-01T18:06:33.115Z,3.38
2017-06-01T18:09:01.089Z,3.38
2017-06-01T18:11:29.075Z,3.24
2017-06-01T18:13:59.554Z,2.86
2017-06-01T18:16:26.567Z,2.50
2017-06-01T18:18:54.639Z,2.60
2017-06-01T18:21:21.679Z,2.18
2017-06-01T18:23:48.766Z,2.72
2017-06-01T18:26:15.793Z,3.00
2017-06-01T18:28:43.793Z,2.80
2017-06-01T18:31:10.810Z,2.84
2017-06-01T18:33:38.844Z,2.76
2017-06-01T18:36:05.859Z,3.02
2017-06-01T18:38:32.867Z,2.60
2017-06-01T18:41:00.864Z,2.54
2017-06-01T18:43:27.504Z,2.44
2017-06-01T18:45:54.528Z,2.62
2017-06-01T18:48:21.558Z,3.16
2017-06-01T18:50:48.589Z,1.94
2017-06-01T18:53:15.594Z,2.26
2017-06-01T18:55:42.248Z,2.10
2017-06-01T18:58:09.242Z,1.70
2017-06-01T19:00:37.268Z,1.50
2017-06-01T19:03:05.257Z,2.20
2017-06-01T19:05:32.285Z,3.68
2017-06-01T19:07:58.945Z,2.52
2017-06-01T19:10:25.974Z,2.40
2017-06-01T19:12:52.645Z,2.52
2017-06-01T19:15:19.294Z,1.94
2017-06-01T19:17:47.026Z,2.10
2017-06-01T19:20:13.677Z,1.94
2017-06-01T19:22:45.702Z,2.20
2017-06-01T19:25:13.718Z,2.56
2017-06-01T19:27:41.761Z,1.58
2017-06-01T19:30:09.800Z,1.72
2017-06-01T19:32:37.774Z,2.40
2017-06-01T19:35:07.774Z,3.04
2017-06-01T19:37:35.789Z,3.76
2017-06-01T19:40:04.130Z,2.40
2017-06-01T19:42:31.206Z,2.06
2017-06-01T19:44:58.200Z,1.94
2017-06-01T19:47:24.918Z,1.94
2017-06-01T19:49:51.707Z,2.30
2017-06-01T19:52:18.936Z,2.28
2017-06-01T19:54:46.166Z,2.52
2017-06-01T19:57:13.569Z,2.62
2017-06-01T19:59:41.601Z,3.54
2017-06-01T20:02:09.629Z,3.48
2017-06-01T20:04:36.641Z,3.86
2017-06-01T20:07:03.638Z,4.02
2017-06-01T20:09:35.367Z,3.94
2017-06-01T20:12:02.367Z,4.54
2017-06-01T20:14:29.396Z,3.74
2017-06-01T20:16:56.817Z,4.36
2017-06-01T20:19:24.185Z,3.90
2017-06-01T20:21:51.659Z,4.22
2017-06-01T20:24:19.897Z,4.34
2017-06-01T20:26:47.705Z,4.36
2017-06-01T20:29:15.740Z,4.76
2017-06-01T20:31:43.798Z,4.92
2017-06-01T20:34:11.573Z,5.56
2017-06-01T20:36:39.651Z,6.28
2017-06-01T20:39:07.810Z,4.54
2017-06-01T20:41:35.573Z,4.88
2017-06-01T20:44:03.072Z,5.72
2017-06-01T20:46:29.346Z,4.80
2017-06-01T20:48:57.441Z,6.04
2017-06-01T20:51:24.099Z,5.58
2017-06-01T20:53:52.306Z,5.10
2017-06-01T20:56:20.318Z,4.92
2017-06-01T20:58:48.369Z,4.78
2017-06-01T21:01:15.799Z,5.36
2017-06-01T21:03:43.977Z,5.88
2017-06-01T21:06:11.376Z,5.96
2017-06-01T21:08:38.401Z,6.40
2017-06-01T21:11:05.794Z,5.02
2017-06-01T21:13:32.810Z,5.68
2017-06-01T21:16:00.209Z,5.60
2017-06-01T21:18:27.963Z,6.36
2017-06-01T21:20:55.246Z,5.86
2017-06-01T21:23:23.241Z,5.60
2017-06-01T21:25:51.333Z,5.02
2017-06-01T21:28:19.493Z,5.54
2017-06-01T21:30:47.532Z,5.98
2017-06-01T21:33:15.567Z,7.18
2017-06-01T21:35:43.547Z,7.20
2017-06-01T21:38:11.549Z,7.02
2017-06-01T21:40:39.529Z,6.76
2017-06-01T21:43:07.385Z,5.94
2017-06-01T21:45:34.393Z,6.54
2017-06-01T21:48:02.400Z,6.46
2017-06-01T21:50:30.381Z,6.24
2017-06-01T21:52:57.766Z,6.34
2017-06-01T21:55:24.788Z,7.08
2017-06-01T21:57:52.816Z,7.92
2017-06-01T22:00:20.877Z,6.96
2017-06-01T22:02:48.882Z,7.88
2017-06-01T22:05:16.876Z,8.80
2017-06-01T22:07:44.897Z,8.90
2017-06-01T22:10:12.865Z,7.00
2017-06-01T22:12:39.895Z,8.00
2017-06-01T22:15:07.707Z,8.08
2017-06-01T22:17:35.731Z,7.70
2017-06-01T22:20:03.104Z,7.78
2017-06-01T22:22:30.850Z,7.98
2017-06-01T22:24:58.852Z,8.24
2017-06-01T22:27:26.825Z,7.76
2017-06-01T22:29:53.173Z,7.52
2017-06-01T22:32:20.205Z,8.64
2017-06-01T22:34:48.258Z,9.12
2017-06-01T22:37:16.081Z,8.38
2017-06-01T22:39:44.077Z,7.80
2017-06-01T22:42:12.251Z,8.50
2017-06-01T22:44:40.315Z,8.36
2017-06-01T22:47:06.937Z,9.14
2017-06-01T22:49:33.941Z,8.46
2017-06-01T22:52:01.324Z,8.12
2017-06-01T22:54:28.273Z,8.64
2017-06-01T22:56:56.324Z,8.42
2017-06-01T22:59:24.346Z,9.84
2017-06-01T23:01:51.826Z,9.30
2017-06-01T23:04:19.842Z,9.22
2017-06-01T23:06:47.237Z,8.54
2017-06-01T23:09:13.871Z,8.78
2017-06-01T23:11:40.724Z,8.28
2017-06-01T23:14:08.561Z,8.84
2017-06-01T23:16:35.244Z,8.42
2017-06-01T23:19:03.242Z,8.48
2017-06-01T23:21:31.231Z,8.96
2017-06-01T23:23:59.270Z,8.70
2017-06-01T23:26:27.298Z,9.12
2017-06-01T23:28:55.319Z,9.28
2017-06-01T23:31:22.712Z,8.94
2017-06-01T23:33:49.739Z,8.34
2017-06-01T23:36:17.726Z,8.26
2017-06-01T23:38:44.411Z,8.34
2017-06-01T23:41:12.460Z,8.50
2017-06-01T23:43:40.450Z,7.10
2017-06-01T23:46:07.871Z,6.84
2017-06-01T23:48:34.872Z,6.80
2017-06-01T23:51:02.847Z,7.48
2017-06-01T23:53:29.474Z,7.72
2017-06-01T23:55:57.454Z,7.76
2017-06-01T23:58:25.482Z,7.52
